sensor_id;sensor_type;location;lat;lon;timestamp;pressure;altitude;pressure_sealevel;temperature;humidity
15817;BME280;8009;50.070;8.232;2024-01-07T00:00:22;99558.78;;;10.57;53.59
15817;BME280;8009;50.070;8.232;2024-01-07T00:02:50;99558.03;;;10.98;52.74
15817;BME280;8009;50.070;8.232;2024-01-07T00:05:18;99565.50;;;10.73;53.63
15817;BME280;8009;50.070;8.232;2024-01-07T00:07:47;99575.41;;;10.30;54.59
15817;BME280;8009;50.070;8.232;2024-01-07T00:10:18;99572.44;;;10.44;54.23
15817;BME280;8009;50.070;8.232;2024-01-07T00:12:47;99576.31;;;9.27;57.96
15817;BME280;8009;50.070;8.232;2024-01-07T00:15:17;99582.03;;;9.81;56.30
15817;BME280;8009;50.070;8.232;2024-01-07T00:17:45;99575.16;;;10.10;56.06
15817;BME280;8009;50.070;8.232;2024-01-07T00:20:14;99583.56;;;9.49;56.85
15817;BME280;8009;50.070;8.232;2024-01-07T00:22:42;99591.31;;;9.88;56.46
15817;BME280;8009;50.070;8.232;2024-01-07T00:25:13;99584.19;;;9.64;56.58
15817;BME280;8009;50.070;8.232;2024-01-07T00:27:46;99583.59;;;9.72;56.49
15817;BME280;8009;50.070;8.232;2024-01-07T00:30:16;99583.63;;;9.83;56.24
15817;BME280;8009;50.070;8.232;2024-01-07T00:32:44;99582.53;;;10.19;54.82
15817;BME280;8009;50.070;8.232;2024-01-07T00:35:13;99593.16;;;9.76;56.02
15817;BME280;8009;50.070;8.232;2024-01-07T00:37:41;99587.97;;;9.39;57.00
15817;BME280;8009;50.070;8.232;2024-01-07T00:40:11;99583.97;;;9.79;56.26
15817;BME280;8009;50.070;8.232;2024-01-07T00:42:39;99589.50;;;9.66;56.09
15817;BME280;8009;50.070;8.232;2024-01-07T00:45:11;99583.13;;;9.67;56.61
15817;BME280;8009;50.070;8.232;2024-01-07T00:47:39;99582.75;;;9.94;56.74
15817;BME280;8009;50.070;8.232;2024-01-07T00:50:10;99588.22;;;9.47;57.05
15817;BME280;8009;50.070;8.232;2024-01-07T00:52:40;99590.84;;;10.16;55.44
15817;BME280;8009;50.070;8.232;2024-01-07T00:55:09;99600.50;;;9.63;56.71
15817;BME280;8009;50.070;8.232;2024-01-07T00:57:37;99602.41;;;9.38;57.18
15817;BME280;8009;50.070;8.232;2024-01-07T01:00:10;99596.63;;;10.23;56.56
15817;BME280;8009;50.070;8.232;2024-01-07T01:02:38;99597.84;;;10.41;54.02
15817;BME280;8009;50.070;8.232;2024-01-07T01:05:07;99600.22;;;11.10;52.22
15817;BME280;8009;50.070;8.232;2024-01-07T01:07:36;99605.69;;;10.56;53.85
15817;BME280;8009;50.070;8.232;2024-01-07T01:10:07;99607.88;;;11.05;52.84
15817;BME280;8009;50.070;8.232;2024-01-07T01:15:52;99610.97;;;11.01;52.89
15817;BME280;8009;50.070;8.232;2024-01-07T01:18:20;99610.84;;;10.47;54.01
15817;BME280;8009;50.070;8.232;2024-01-07T01:20:49;99612.41;;;10.72;53.12
15817;BME280;8009;50.070;8.232;2024-01-07T01:23:17;99619.31;;;10.09;55.03
15817;BME280;8009;50.070;8.232;2024-01-07T01:25:45;99612.06;;;10.21;54.79
15817;BME280;8009;50.070;8.232;2024-01-07T01:28:14;99621.53;;;10.38;54.24
15817;BME280;8009;50.070;8.232;2024-01-07T01:30:42;99608.28;;;10.57;53.74
15817;BME280;8009;50.070;8.232;2024-01-07T01:33:14;99619.94;;;10.35;54.02
15817;BME280;8009;50.070;8.232;2024-01-07T01:35:42;99621.78;;;10.46;53.29
15817;BME280;8009;50.070;8.232;2024-01-07T01:38:10;99639.78;;;10.12;54.67
15817;BME280;8009;50.070;8.232;2024-01-07T01:40:38;99635.84;;;9.93;55.03
15817;BME280;8009;50.070;8.232;2024-01-07T01:43:07;99628.19;;;10.88;52.37
15817;BME280;8009;50.070;8.232;2024-01-07T01:45:35;99634.41;;;10.23;53.56
15817;BME280;8009;50.070;8.232;2024-01-07T01:48:04;99636.00;;;10.37;53.75
15817;BME280;8009;50.070;8.232;2024-01-07T01:50:36;99628.63;;;10.72;52.90
15817;BME280;8009;50.070;8.232;2024-01-07T01:53:04;99636.84;;;10.37;53.54
15817;BME280;8009;50.070;8.232;2024-01-07T01:55:33;99645.66;;;10.17;54.77
15817;BME280;8009;50.070;8.232;2024-01-07T01:58:02;99629.91;;;10.89;52.28
15817;BME280;8009;50.070;8.232;2024-01-07T02:00:32;99621.84;;;10.78;52.99
15817;BME280;8009;50.070;8.232;2024-01-07T02:03:00;99633.63;;;10.77;52.83
15817;BME280;8009;50.070;8.232;2024-01-07T02:05:29;99626.56;;;10.54;52.80
15817;BME280;8009;50.070;8.232;2024-01-07T02:08:00;99634.25;;;10.24;53.86
15817;BME280;8009;50.070;8.232;2024-01-07T02:10:28;99631.22;;;10.95;51.95
15817;BME280;8009;50.070;8.232;2024-01-07T02:12:59;99640.19;;;10.30;53.72
15817;BME280;8009;50.070;8.232;2024-01-07T02:15:29;99637.97;;;11.01;52.18
15817;BME280;8009;50.070;8.232;2024-01-07T02:17:58;99633.63;;;9.98;54.14
15817;BME280;8009;50.070;8.232;2024-01-07T02:20:27;99636.75;;;10.50;53.65
15817;BME280;8009;50.070;8.232;2024-01-07T02:22:55;99638.09;;;10.33;52.43
15817;BME280;8009;50.070;8.232;2024-01-07T02:25:27;99636.56;;;10.74;52.32
15817;BME280;8009;50.070;8.232;2024-01-07T02:27:55;99632.69;;;10.44;53.01
15817;BME280;8009;50.070;8.232;2024-01-07T02:30:23;99637.53;;;10.84;51.91
15817;BME280;8009;50.070;8.232;2024-01-07T02:32:52;99647.13;;;10.77;51.85
15817;BME280;8009;50.070;8.232;2024-01-07T02:35:20;99640.34;;;10.83;51.73
15817;BME280;8009;50.070;8.232;2024-01-07T02:37:49;99653.03;;;10.48;52.36
15817;BME280;8009;50.070;8.232;2024-01-07T02:40:17;99645.66;;;10.73;51.83
15817;BME280;8009;50.070;8.232;2024-01-07T02:42:48;99660.81;;;10.53;52.60
15817;BME280;8009;50.070;8.232;2024-01-07T02:45:17;99660.53;;;10.45;52.88
15817;BME280;8009;50.070;8.232;2024-01-07T02:47:45;99655.59;;;10.16;53.64
15817;BME280;8009;50.070;8.232;2024-01-07T02:50:13;99653.66;;;10.41;52.78
15817;BME280;8009;50.070;8.232;2024-01-07T02:52:42;99651.31;;;10.14;53.53
15817;BME280;8009;50.070;8.232;2024-01-07T02:55:10;99653.66;;;10.52;52.70
15817;BME280;8009;50.070;8.232;2024-01-07T02:57:39;99654.38;;;10.20;53.46
15817;BME280;8009;50.070;8.232;2024-01-07T03:00:13;99648.84;;;9.88;54.24
15817;BME280;8009;50.070;8.232;2024-01-07T03:02:42;99650.44;;;10.13;53.66
15817;BME280;8009;50.070;8.232;2024-01-07T03:05:10;99664.31;;;10.20;53.17
15817;BME280;8009;50.070;8.232;2024-01-07T03:07:38;99655.25;;;9.52;55.28
15817;BME280;8009;50.070;8.232;2024-01-07T03:10:08;99655.72;;;10.04;54.12
15817;BME280;8009;50.070;8.232;2024-01-07T03:12:41;99663.06;;;10.01;54.05
15817;BME280;8009;50.070;8.232;2024-01-07T03:15:14;99656.50;;;10.39;52.99
15817;BME280;8009;50.070;8.232;2024-01-07T03:17:45;99657.16;;;9.74;54.56
15817;BME280;8009;50.070;8.232;2024-01-07T03:20:15;99663.19;;;10.22;53.43
15817;BME280;8009;50.070;8.232;2024-01-07T03:22:43;99665.50;;;9.93;53.82
15817;BME280;8009;50.070;8.232;2024-01-07T03:25:12;99666.75;;;10.00;53.89
15817;BME280;8009;50.070;8.232;2024-01-07T03:27:48;99668.91;;;10.31;52.96
15817;BME280;8009;50.070;8.232;2024-01-07T03:30:18;99672.69;;;10.39;52.71
15817;BME280;8009;50.070;8.232;2024-01-07T03:32:47;99668.72;;;10.21;53.31
15817;BME280;8009;50.070;8.232;2024-01-07T03:35:15;99669.69;;;9.97;54.08
15817;BME280;8009;50.070;8.232;2024-01-07T03:37:47;99670.69;;;9.96;54.53
15817;BME280;8009;50.070;8.232;2024-01-07T03:40:22;99670.06;;;9.93;53.91
15817;BME280;8009;50.070;8.232;2024-01-07T03:42:51;99666.78;;;9.65;54.86
15817;BME280;8009;50.070;8.232;2024-01-07T03:45:22;99665.41;;;10.17;53.69
15817;BME280;8009;50.070;8.232;2024-01-07T03:47:51;99667.34;;;9.93;54.04
15817;BME280;8009;50.070;8.232;2024-01-07T03:50:21;99659.50;;;9.43;56.09
15817;BME280;8009;50.070;8.232;2024-01-07T03:52:52;99664.38;;;9.38;55.83
15817;BME280;8009;50.070;8.232;2024-01-07T03:55:20;99671.84;;;9.70;54.58
15817;BME280;8009;50.070;8.232;2024-01-07T03:57:48;99673.22;;;9.87;54.31
15817;BME280;8009;50.070;8.232;2024-01-07T04:00:17;99671.72;;;9.71;54.69
15817;BME280;8009;50.070;8.232;2024-01-07T04:02:48;99669.69;;;10.87;52.14
15817;BME280;8009;50.070;8.232;2024-01-07T04:05:16;99674.16;;;10.32;52.79
15817;BME280;8009;50.070;8.232;2024-01-07T04:07:45;99675.66;;;9.79;54.42
15817;BME280;8009;50.070;8.232;2024-01-07T04:10:15;99679.84;;;9.83;54.44
15817;BME280;8009;50.070;8.232;2024-01-07T04:12:44;99672.69;;;10.28;53.12
15817;BME280;8009;50.070;8.232;2024-01-07T04:15:12;99677.91;;;10.07;53.54
15817;BME280;8009;50.070;8.232;2024-01-07T04:17:41;99684.84;;;9.87;55.02
15817;BME280;8009;50.070;8.232;2024-01-07T04:20:12;99677.94;;;10.30;53.92
15817;BME280;8009;50.070;8.232;2024-01-07T04:22:41;99692.88;;;10.22;53.62
15817;BME280;8009;50.070;8.232;2024-01-07T04:25:09;99698.88;;;9.92;54.81
15817;BME280;8009;50.070;8.232;2024-01-07T04:27:38;99690.88;;;9.91;54.52
15817;BME280;8009;50.070;8.232;2024-01-07T04:30:07;99701.81;;;10.00;54.45
15817;BME280;8009;50.070;8.232;2024-01-07T04:32:35;99696.84;;;10.63;52.87
15817;BME280;8009;50.070;8.232;2024-01-07T04:35:04;99696.22;;;10.37;53.49
15817;BME280;8009;50.070;8.232;2024-01-07T04:37:37;99692.31;;;10.53;52.99
15817;BME280;8009;50.070;8.232;2024-01-07T04:40:09;99699.13;;;10.00;54.76
15817;BME280;8009;50.070;8.232;2024-01-07T04:42:38;99706.72;;;9.60;55.89
15817;BME280;8009;50.070;8.232;2024-01-07T04:45:07;99703.38;;;9.81;56.32
15817;BME280;8009;50.070;8.232;2024-01-07T04:47:38;99712.66;;;9.76;55.19
15817;BME280;8009;50.070;8.232;2024-01-07T04:50:07;99719.28;;;9.48;55.89
15817;BME280;8009;50.070;8.232;2024-01-07T04:52:39;99715.06;;;9.68;55.75
15817;BME280;8009;50.070;8.232;2024-01-07T04:55:08;99721.31;;;10.04;54.54
15817;BME280;8009;50.070;8.232;2024-01-07T04:57:36;99723.69;;;10.20;54.38
15817;BME280;8009;50.070;8.232;2024-01-07T05:00:06;99719.25;;;10.08;54.65
15817;BME280;8009;50.070;8.232;2024-01-07T05:02:34;99729.84;;;9.87;55.08
15817;BME280;8009;50.070;8.232;2024-01-07T05:05:03;99718.94;;;9.53;55.77
15817;BME280;8009;50.070;8.232;2024-01-07T05:07:32;99719.25;;;10.08;54.77
15817;BME280;8009;50.070;8.232;2024-01-07T05:10:04;99719.72;;;10.01;55.84
15817;BME280;8009;50.070;8.232;2024-01-07T05:12:32;99728.53;;;9.92;55.12
15817;BME280;8009;50.070;8.232;2024-01-07T05:15:01;99724.50;;;9.63;55.93
15817;BME280;8009;50.070;8.232;2024-01-07T05:17:29;99726.34;;;10.09;56.56
15817;BME280;8009;50.070;8.232;2024-01-07T05:19:57;99732.28;;;10.25;53.78
15817;BME280;8009;50.070;8.232;2024-01-07T05:22:26;99743.97;;;10.37;53.78
15817;BME280;8009;50.070;8.232;2024-01-07T05:24:54;99743.41;;;9.50;56.07
15817;BME280;8009;50.070;8.232;2024-01-07T05:27:25;99742.41;;;10.45;54.05
15817;BME280;8009;50.070;8.232;2024-01-07T05:29:53;99737.94;;;10.33;54.45
15817;BME280;8009;50.070;8.232;2024-01-07T05:32:22;99753.78;;;10.27;54.37
15817;BME280;8009;50.070;8.232;2024-01-07T05:34:50;99741.69;;;11.32;51.42
15817;BME280;8009;50.070;8.232;2024-01-07T05:37:18;99748.94;;;11.20;51.77
15817;BME280;8009;50.070;8.232;2024-01-07T05:39:47;99753.84;;;11.37;51.21
15817;BME280;8009;50.070;8.232;2024-01-07T05:42:15;99770.75;;;10.73;52.54
15817;BME280;8009;50.070;8.232;2024-01-07T05:44:46;99771.81;;;11.05;52.22
15817;BME280;8009;50.070;8.232;2024-01-07T05:47:15;99777.00;;;10.96;51.75
15817;BME280;8009;50.070;8.232;2024-01-07T05:49:44;99774.31;;;10.85;52.44
15817;BME280;8009;50.070;8.232;2024-01-07T05:52:12;99773.56;;;10.61;52.58
15817;BME280;8009;50.070;8.232;2024-01-07T05:54:40;99781.38;;;10.41;53.17
15817;BME280;8009;50.070;8.232;2024-01-07T05:57:08;99778.69;;;10.53;52.71
15817;BME280;8009;50.070;8.232;2024-01-07T05:59:37;99784.25;;;10.73;52.58
15817;BME280;8009;50.070;8.232;2024-01-07T06:02:08;99789.75;;;10.72;52.92
15817;BME280;8009;50.070;8.232;2024-01-07T06:04:37;99780.78;;;10.83;53.22
15817;BME280;8009;50.070;8.232;2024-01-07T06:07:06;99790.25;;;10.88;52.06
15817;BME280;8009;50.070;8.232;2024-01-07T06:09:34;99792.97;;;10.19;54.79
15817;BME280;8009;50.070;8.232;2024-01-07T06:12:04;99799.06;;;11.13;51.94
15817;BME280;8009;50.070;8.232;2024-01-07T06:14:33;99801.97;;;9.72;55.64
15817;BME280;8009;50.070;8.232;2024-01-07T06:17:01;99802.34;;;10.27;54.55
15817;BME280;8009;50.070;8.232;2024-01-07T06:19:32;99798.75;;;10.72;53.66
15817;BME280;8009;50.070;8.232;2024-01-07T06:22:01;99806.22;;;10.91;53.22
15817;BME280;8009;50.070;8.232;2024-01-07T06:24:29;99806.28;;;10.45;54.90
15817;BME280;8009;50.070;8.232;2024-01-07T06:26:57;99806.47;;;10.66;53.91
15817;BME280;8009;50.070;8.232;2024-01-07T06:29:29;99815.19;;;10.23;54.37
15817;BME280;8009;50.070;8.232;2024-01-07T06:31:57;99820.75;;;10.33;54.26
15817;BME280;8009;50.070;8.232;2024-01-07T06:34:28;99818.84;;;11.25;52.30
15817;BME280;8009;50.070;8.232;2024-01-07T06:36:59;99833.06;;;11.49;51.27
15817;BME280;8009;50.070;8.232;2024-01-07T06:39:29;99832.88;;;10.96;52.55
15817;BME280;8009;50.070;8.232;2024-01-07T06:41:59;99841.06;;;10.83;52.31
15817;BME280;8009;50.070;8.232;2024-01-07T06:44:28;99839.34;;;10.71;53.08
15817;BME280;8009;50.070;8.232;2024-01-07T06:46:56;99840.59;;;10.78;52.71
15817;BME280;8009;50.070;8.232;2024-01-07T06:49:24;99841.53;;;10.55;53.27
15817;BME280;8009;50.070;8.232;2024-01-07T06:51:52;99848.09;;;10.86;52.32
15817;BME280;8009;50.070;8.232;2024-01-07T06:54:24;99854.38;;;10.40;53.18
15817;BME280;8009;50.070;8.232;2024-01-07T06:56:53;99852.81;;;10.60;53.26
15817;BME280;8009;50.070;8.232;2024-01-07T06:59:21;99857.81;;;11.00;52.10
15817;BME280;8009;50.070;8.232;2024-01-07T07:01:49;99857.75;;;10.66;53.31
15817;BME280;8009;50.070;8.232;2024-01-07T07:04:20;99869.78;;;10.62;52.78
15817;BME280;8009;50.070;8.232;2024-01-07T07:06:49;99866.91;;;10.17;54.51
15817;BME280;8009;50.070;8.232;2024-01-07T07:09:18;99869.66;;;10.63;52.51
15817;BME280;8009;50.070;8.232;2024-01-07T07:11:49;99873.13;;;11.21;51.30
15817;BME280;8009;50.070;8.232;2024-01-07T07:14:17;99881.84;;;11.14;51.26
15817;BME280;8009;50.070;8.232;2024-01-07T07:16:45;99872.28;;;10.41;52.95
15817;BME280;8009;50.070;8.232;2024-01-07T07:19:14;99884.66;;;10.32;52.87
15817;BME280;8009;50.070;8.232;2024-01-07T07:21:43;99889.00;;;10.22;52.94
15817;BME280;8009;50.070;8.232;2024-01-07T07:24:12;99891.41;;;10.38;52.97
15817;BME280;8009;50.070;8.232;2024-01-07T07:26:42;99886.72;;;10.75;52.01
15817;BME280;8009;50.070;8.232;2024-01-07T07:29:13;99898.22;;;11.46;50.37
15817;BME280;8009;50.070;8.232;2024-01-07T07:31:41;99904.38;;;11.14;50.73
15817;BME280;8009;50.070;8.232;2024-01-07T07:34:10;99906.16;;;11.92;49.53
15817;BME280;8009;50.070;8.232;2024-01-07T07:36:38;99914.56;;;11.22;50.27
15817;BME280;8009;50.070;8.232;2024-01-07T07:39:10;99922.91;;;11.08;50.41
15817;BME280;8009;50.070;8.232;2024-01-07T07:41:39;99917.84;;;11.03;50.38
15817;BME280;8009;50.070;8.232;2024-01-07T07:44:08;99925.22;;;11.01;49.94
15817;BME280;8009;50.070;8.232;2024-01-07T07:46:39;99924.78;;;10.13;51.95
15817;BME280;8009;50.070;8.232;2024-01-07T07:49:07;99940.03;;;10.01;52.47
15817;BME280;8009;50.070;8.232;2024-01-07T07:51:46;99931.53;;;10.31;51.35
15817;BME280;8009;50.070;8.232;2024-01-07T07:54:19;99916.38;;;10.53;50.27
15817;BME280;8009;50.070;8.232;2024-01-07T07:56:47;99935.72;;;10.35;50.42
15817;BME280;8009;50.070;8.232;2024-01-07T07:59:17;99948.34;;;10.35;49.46
15817;BME280;8009;50.070;8.232;2024-01-07T08:01:51;99946.19;;;10.03;50.43
15817;BME280;8009;50.070;8.232;2024-01-07T08:04:22;99949.53;;;9.70;51.08
15817;BME280;8009;50.070;8.232;2024-01-07T08:06:52;99953.13;;;9.94;50.30
15817;BME280;8009;50.070;8.232;2024-01-07T08:09:21;99945.81;;;10.44;48.89
15817;BME280;8009;50.070;8.232;2024-01-07T08:11:52;99951.53;;;10.75;48.99
15817;BME280;8009;50.070;8.232;2024-01-07T08:14:26;99956.38;;;10.94;48.75
15817;BME280;8009;50.070;8.232;2024-01-07T08:17:04;99962.41;;;10.51;48.72
15817;BME280;8009;50.070;8.232;2024-01-07T08:19:34;99961.50;;;10.02;49.18
15817;BME280;8009;50.070;8.232;2024-01-07T08:22:03;99974.41;;;10.10;49.09
15817;BME280;8009;50.070;8.232;2024-01-07T08:24:31;99970.56;;;9.65;49.84
15817;BME280;8009;50.070;8.232;2024-01-07T08:27:06;99977.44;;;9.69;50.04
15817;BME280;8009;50.070;8.232;2024-01-07T08:29:34;99978.22;;;10.08;49.22
15817;BME280;8009;50.070;8.232;2024-01-07T08:32:10;99978.78;;;10.00;49.92
15817;BME280;8009;50.070;8.232;2024-01-07T08:34:40;99971.31;;;10.76;48.01
15817;BME280;8009;50.070;8.232;2024-01-07T08:37:08;99982.06;;;10.64;47.97
15817;BME280;8009;50.070;8.232;2024-01-07T08:39:37;99992.38;;;10.22;48.54
15817;BME280;8009;50.070;8.232;2024-01-07T08:42:07;99985.63;;;10.54;47.52
15817;BME280;8009;50.070;8.232;2024-01-07T08:44:36;99984.34;;;10.46;47.54
15817;BME280;8009;50.070;8.232;2024-01-07T08:47:07;99997.28;;;10.17;48.32
15817;BME280;8009;50.070;8.232;2024-01-07T08:49:38;99994.22;;;10.22;47.47
15817;BME280;8009;50.070;8.232;2024-01-07T08:52:08;99996.16;;;10.57;47.39
15817;BME280;8009;50.070;8.232;2024-01-07T08:54:40;99996.06;;;10.93;46.90
15817;BME280;8009;50.070;8.232;2024-01-07T08:57:08;100009.69;;;9.83;48.72
15817;BME280;8009;50.070;8.232;2024-01-07T08:59:38;100004.63;;;10.28;48.69
15817;BME280;8009;50.070;8.232;2024-01-07T09:02:09;100010.03;;;10.87;47.34
15817;BME280;8009;50.070;8.232;2024-01-07T09:04:38;100015.19;;;10.55;47.58
15817;BME280;8009;50.070;8.232;2024-01-07T09:07:07;100021.47;;;10.19;48.38
15817;BME280;8009;50.070;8.232;2024-01-07T09:09:35;100019.13;;;10.01;48.93
15817;BME280;8009;50.070;8.232;2024-01-07T09:12:04;100020.16;;;9.75;50.24
15817;BME280;8009;50.070;8.232;2024-01-07T09:14:33;100023.81;;;10.23;48.87
15817;BME280;8009;50.070;8.232;2024-01-07T09:17:01;100032.03;;;10.35;48.89
15817;BME280;8009;50.070;8.232;2024-01-07T09:19:35;100033.44;;;10.52;49.13
15817;BME280;8009;50.070;8.232;2024-01-07T09:22:09;100041.31;;;9.56;51.14
15817;BME280;8009;50.070;8.232;2024-01-07T09:24:40;100034.41;;;9.77;51.05
15817;BME280;8009;50.070;8.232;2024-01-07T09:27:13;100045.28;;;9.75;50.79
15817;BME280;8009;50.070;8.232;2024-01-07T09:29:42;100050.19;;;10.07;50.26
15817;BME280;8009;50.070;8.232;2024-01-07T09:32:11;100050.66;;;10.38;49.86
15817;BME280;8009;50.070;8.232;2024-01-07T09:34:42;100058.81;;;10.12;50.05
15817;BME280;8009;50.070;8.232;2024-01-07T09:37:13;100065.38;;;10.21;50.29
15817;BME280;8009;50.070;8.232;2024-01-07T09:39:42;100065.34;;;10.46;49.92
15817;BME280;8009;50.070;8.232;2024-01-07T09:42:15;100062.94;;;10.55;49.66
15817;BME280;8009;50.070;8.232;2024-01-07T09:44:48;100075.31;;;10.20;50.61
15817;BME280;8009;50.070;8.232;2024-01-07T09:47:20;100076.31;;;10.07;50.28
15817;BME280;8009;50.070;8.232;2024-01-07T09:49:51;100074.31;;;10.21;49.83
15817;BME280;8009;50.070;8.232;2024-01-07T09:52:20;100090.38;;;9.86;49.68
15817;BME280;8009;50.070;8.232;2024-01-07T09:54:51;100083.13;;;9.87;49.98
15817;BME280;8009;50.070;8.232;2024-01-07T09:57:22;100082.16;;;9.24;51.55
15817;BME280;8009;50.070;8.232;2024-01-07T09:59:55;100079.78;;;9.83;49.91
15817;BME280;8009;50.070;8.232;2024-01-07T10:02:23;100090.19;;;10.39;49.44
15817;BME280;8009;50.070;8.232;2024-01-07T10:04:54;100087.13;;;9.68;52.77
15817;BME280;8009;50.070;8.232;2024-01-07T10:07:25;100089.59;;;9.84;49.21
15817;BME280;8009;50.070;8.232;2024-01-07T10:09:54;100094.84;;;10.24;48.47
15817;BME280;8009;50.070;8.232;2024-01-07T10:12:23;100094.75;;;10.38;48.18
15817;BME280;8009;50.070;8.232;2024-01-07T10:14:52;100096.94;;;9.82;49.10
15817;BME280;8009;50.070;8.232;2024-01-07T10:17:21;100107.09;;;9.53;49.68
15817;BME280;8009;50.070;8.232;2024-01-07T10:19:56;100101.84;;;10.87;46.81
15817;BME280;8009;50.070;8.232;2024-01-07T10:22:24;100105.00;;;10.20;48.50
15817;BME280;8009;50.070;8.232;2024-01-07T10:24:52;100108.09;;;10.40;47.62
15817;BME280;8009;50.070;8.232;2024-01-07T10:27:23;100099.31;;;10.49;46.73
15817;BME280;8009;50.070;8.232;2024-01-07T10:29:54;100102.50;;;10.43;46.94
15817;BME280;8009;50.070;8.232;2024-01-07T10:32:26;100104.38;;;9.53;48.97
15817;BME280;8009;50.070;8.232;2024-01-07T10:35:02;100107.84;;;9.68;48.59
15817;BME280;8009;50.070;8.232;2024-01-07T10:37:31;100111.72;;;9.89;48.68
15817;BME280;8009;50.070;8.232;2024-01-07T10:40:00;100119.28;;;8.93;49.48
15817;BME280;8009;50.070;8.232;2024-01-07T10:42:30;100108.97;;;10.15;47.08
15817;BME280;8009;50.070;8.232;2024-01-07T10:44:59;100118.00;;;9.77;47.82
15817;BME280;8009;50.070;8.232;2024-01-07T10:47:30;100111.19;;;9.97;47.36
15817;BME280;8009;50.070;8.232;2024-01-07T10:50:02;100110.66;;;10.54;46.04
15817;BME280;8009;50.070;8.232;2024-01-07T10:52:32;100113.44;;;9.65;47.25
15817;BME280;8009;50.070;8.232;2024-01-07T10:55:08;100116.66;;;10.21;46.72
15817;BME280;8009;50.070;8.232;2024-01-07T10:57:42;100119.69;;;10.16;46.14
15817;BME280;8009;50.070;8.232;2024-01-07T11:00:14;100118.34;;;10.47;45.24
15817;BME280;8009;50.070;8.232;2024-01-07T11:03:02;100113.88;;;10.59;46.08
15817;BME280;8009;50.070;8.232;2024-01-07T11:05:42;100121.22;;;10.08;46.15
15817;BME280;8009;50.070;8.232;2024-01-07T11:08:25;100117.50;;;10.21;45.93
15817;BME280;8009;50.070;8.232;2024-01-07T11:10:59;100121.66;;;9.89;47.01
15817;BME280;8009;50.070;8.232;2024-01-07T11:13:32;100117.22;;;9.88;46.15
15817;BME280;8009;50.070;8.232;2024-01-07T11:16:03;100120.25;;;9.70;47.42
15817;BME280;8009;50.070;8.232;2024-01-07T11:18:38;100116.38;;;10.00;45.97
15817;BME280;8009;50.070;8.232;2024-01-07T11:21:20;100128.34;;;9.83;46.37
15817;BME280;8009;50.070;8.232;2024-01-07T11:23:50;100126.41;;;9.60;48.20
15817;BME280;8009;50.070;8.232;2024-01-07T11:26:20;100123.03;;;9.94;46.69
15817;BME280;8009;50.070;8.232;2024-01-07T11:28:50;100136.59;;;10.18;46.62
15817;BME280;8009;50.070;8.232;2024-01-07T11:31:20;100133.25;;;11.01;45.58
15817;BME280;8009;50.070;8.232;2024-01-07T11:33:50;100126.06;;;10.89;44.98
15817;BME280;8009;50.070;8.232;2024-01-07T11:36:23;100126.50;;;9.96;46.97
15817;BME280;8009;50.070;8.232;2024-01-07T11:38:53;100126.47;;;9.45;48.17
15817;BME280;8009;50.070;8.232;2024-01-07T11:41:23;100131.78;;;9.47;47.28
15817;BME280;8009;50.070;8.232;2024-01-07T11:43:53;100140.41;;;9.65;46.90
15817;BME280;8009;50.070;8.232;2024-01-07T11:46:26;100132.19;;;9.53;46.68
15817;BME280;8009;50.070;8.232;2024-01-07T11:48:56;100140.81;;;8.66;48.47
15817;BME280;8009;50.070;8.232;2024-01-07T11:51:29;100151.22;;;9.90;45.90
15817;BME280;8009;50.070;8.232;2024-01-07T11:54:00;100141.94;;;9.82;46.00
15817;BME280;8009;50.070;8.232;2024-01-07T11:56:32;100151.19;;;9.39;46.99
15817;BME280;8009;50.070;8.232;2024-01-07T11:59:03;100147.22;;;9.70;46.24
15817;BME280;8009;50.070;8.232;2024-01-07T12:01:31;100146.47;;;9.81;46.85
15817;BME280;8009;50.070;8.232;2024-01-07T12:04:00;100148.59;;;9.76;45.15
15817;BME280;8009;50.070;8.232;2024-01-07T12:06:31;100151.31;;;9.76;44.84
15817;BME280;8009;50.070;8.232;2024-01-07T12:09:00;100143.31;;;10.25;44.70
15817;BME280;8009;50.070;8.232;2024-01-07T12:11:28;100153.13;;;9.10;46.57
15817;BME280;8009;50.070;8.232;2024-01-07T12:13:57;100156.16;;;9.58;45.54
15817;BME280;8009;50.070;8.232;2024-01-07T12:16:26;100150.56;;;8.82;46.90
15817;BME280;8009;50.070;8.232;2024-01-07T12:18:54;100158.75;;;9.98;45.59
15817;BME280;8009;50.070;8.232;2024-01-07T12:21:23;100154.00;;;10.01;45.50
15817;BME280;8009;50.070;8.232;2024-01-07T12:23:56;100154.13;;;9.87;44.49
15817;BME280;8009;50.070;8.232;2024-01-07T12:26:26;100159.75;;;9.97;43.88
15817;BME280;8009;50.070;8.232;2024-01-07T12:28:57;100163.13;;;9.35;45.67
15817;BME280;8009;50.070;8.232;2024-01-07T12:31:29;100165.94;;;9.07;45.30
15817;BME280;8009;50.070;8.232;2024-01-07T12:33:57;100169.91;;;9.28;46.14
15817;BME280;8009;50.070;8.232;2024-01-07T12:36:29;100173.47;;;9.41;46.17
15817;BME280;8009;50.070;8.232;2024-01-07T12:39:01;100174.00;;;8.94;46.10
15817;BME280;8009;50.070;8.232;2024-01-07T12:41:30;100173.84;;;9.62;44.79
15817;BME280;8009;50.070;8.232;2024-01-07T12:43:58;100166.25;;;9.02;46.17
15817;BME280;8009;50.070;8.232;2024-01-07T12:46:28;100174.22;;;8.76;46.66
15817;BME280;8009;50.070;8.232;2024-01-07T12:48:57;100170.72;;;8.89;46.54
15817;BME280;8009;50.070;8.232;2024-01-07T12:51:25;100185.56;;;8.82;46.95
15817;BME280;8009;50.070;8.232;2024-01-07T12:53:54;100188.28;;;8.82;46.54
15817;BME280;8009;50.070;8.232;2024-01-07T12:56:25;100185.78;;;9.45;46.22
15817;BME280;8009;50.070;8.232;2024-01-07T12:58:54;100177.31;;;9.77;45.36
15817;BME280;8009;50.070;8.232;2024-01-07T13:01:28;100189.72;;;9.67;44.58
15817;BME280;8009;50.070;8.232;2024-01-07T13:03:59;100182.28;;;9.83;44.50
15817;BME280;8009;50.070;8.232;2024-01-07T13:06:27;100200.19;;;9.32;44.95
15817;BME280;8009;50.070;8.232;2024-01-07T13:08:56;100201.06;;;9.32;46.16
15817;BME280;8009;50.070;8.232;2024-01-07T13:11:28;100203.97;;;8.32;46.82
15817;BME280;8009;50.070;8.232;2024-01-07T13:13:56;100207.56;;;9.15;45.96
15817;BME280;8009;50.070;8.232;2024-01-07T13:16:27;100207.31;;;8.78;46.04
15817;BME280;8009;50.070;8.232;2024-01-07T13:18:55;100210.50;;;9.52;45.36
15817;BME280;8009;50.070;8.232;2024-01-07T13:21:24;100209.03;;;9.07;45.41
15817;BME280;8009;50.070;8.232;2024-01-07T13:23:52;100205.22;;;8.26;46.61
15817;BME280;8009;50.070;8.232;2024-01-07T13:26:20;100224.16;;;8.25;46.71
15817;BME280;8009;50.070;8.232;2024-01-07T13:28:51;100222.97;;;8.86;45.39